createdAt,value
2023-10-20T00:00:16.501Z,11.43
2023-10-20T00:02:43.893Z,11.37
2023-10-20T00:05:10.762Z,13.38
2023-10-20T00:07:38.090Z,10.85
2023-10-20T00:10:05.247Z,11.23
2023-10-20T00:12:32.295Z,9.75
2023-10-20T00:14:58.885Z,9.98
2023-10-20T00:17:26.007Z,13.05
2023-10-20T00:19:52.701Z,10.27
2023-10-20T00:22:19.332Z,12.63
2023-10-20T00:24:46.527Z,11.00
2023-10-20T00:27:16.668Z,10.70
2023-10-20T00:29:45.684Z,9.13
2023-10-20T00:32:16.325Z,8.38
2023-10-20T00:34:42.878Z,9.20
2023-10-20T00:37:09.434Z,10.25
2023-10-20T00:39:36.284Z,11.18
2023-10-20T00:42:03.506Z,8.20
2023-10-20T00:44:30.267Z,14.35
2023-10-20T00:46:57.766Z,8.65
2023-10-20T00:49:24.632Z,8.35
2023-10-20T00:51:51.766Z,7.78
2023-10-20T00:54:18.337Z,7.97
2023-10-20T00:56:45.279Z,12.02
2023-10-20T00:59:12.251Z,6.35
2023-10-20T01:01:39.283Z,10.20
2023-10-20T01:04:07.345Z,9.70
2023-10-20T01:06:34.443Z,8.02
2023-10-20T01:09:01.094Z,7.05
2023-10-20T01:11:27.759Z,9.02
2023-10-20T01:13:54.298Z,7.75
2023-10-20T01:16:20.955Z,13.27
2023-10-20T01:18:47.579Z,11.32
2023-10-20T01:21:14.225Z,8.55
2023-10-20T01:23:41.574Z,6.75
2023-10-20T01:26:09.197Z,8.15
2023-10-20T01:28:35.755Z,6.55
2023-10-20T01:31:02.371Z,5.88
2023-10-20T01:33:28.958Z,7.85
2023-10-20T01:35:55.567Z,8.65
2023-10-20T01:38:22.145Z,7.05
2023-10-20T01:40:48.671Z,6.45
2023-10-20T01:43:15.216Z,9.70
2023-10-20T01:45:41.881Z,7.75
2023-10-20T01:48:08.538Z,8.40
2023-10-20T01:50:36.103Z,7.40
2023-10-20T01:53:03.320Z,7.70
2023-10-20T01:55:29.883Z,10.85
2023-10-20T01:57:56.489Z,9.07
2023-10-20T02:00:23.662Z,10.68
2023-10-20T02:02:50.315Z,8.25
2023-10-20T02:05:17.019Z,11.43
2023-10-20T02:07:44.086Z,11.60
2023-10-20T02:10:11.409Z,10.98
2023-10-20T02:12:38.083Z,9.40
2023-10-20T02:15:05.828Z,9.13
2023-10-20T02:17:34.578Z,8.55
2023-10-20T02:20:02.659Z,9.68
2023-10-20T02:22:29.233Z,8.52
2023-10-20T02:24:55.777Z,9.93
2023-10-20T02:27:22.318Z,11.50
2023-10-20T02:29:48.797Z,9.88
2023-10-20T02:32:15.478Z,11.38
2023-10-20T02:34:42.276Z,11.15
2023-10-20T02:37:13.113Z,10.10
2023-10-20T02:39:40.159Z,12.85
2023-10-20T02:42:07.833Z,13.05
2023-10-20T02:44:34.605Z,10.00
2023-10-20T02:47:01.390Z,11.23
2023-10-20T02:49:27.968Z,12.93
2023-10-20T02:51:54.588Z,10.30
2023-10-20T02:54:21.307Z,10.75
2023-10-20T02:56:47.845Z,10.05
2023-10-20T02:59:14.442Z,9.50
2023-10-20T03:01:40.988Z,8.98
2023-10-20T03:04:08.085Z,10.50
2023-10-20T03:06:34.728Z,10.13
2023-10-20T03:09:01.411Z,9.50
2023-10-20T03:11:28.040Z,9.23
2023-10-20T03:13:54.613Z,11.35
2023-10-20T03:16:21.182Z,8.02
2023-10-20T03:18:47.788Z,9.48
2023-10-20T03:21:14.281Z,10.88
2023-10-20T03:23:44.862Z,9.30
2023-10-20T03:26:13.017Z,13.70
2023-10-20T03:28:40.661Z,8.95
2023-10-20T03:31:08.296Z,13.95
2023-10-20T03:33:34.862Z,9.38
2023-10-20T03:36:02.831Z,11.32
2023-10-20T03:38:29.699Z,11.95
2023-10-20T03:41:07.277Z,12.10
2023-10-20T03:43:35.584Z,14.70
2023-10-20T03:46:02.483Z,9.70
2023-10-20T03:48:30.674Z,10.88
2023-10-20T03:50:57.310Z,10.75
2023-10-20T03:53:24.467Z,11.85
2023-10-20T03:56:06.119Z,14.23
2023-10-20T03:58:37.201Z,18.23
2023-10-20T04:01:04.666Z,15.38
2023-10-20T04:03:34.337Z,11.25
2023-10-20T04:06:02.209Z,14.65
2023-10-20T04:08:29.059Z,17.77
2023-10-20T04:10:59.718Z,15.57
2023-10-20T04:13:26.735Z,15.23
2023-10-20T04:15:56.295Z,15.95
2023-10-20T04:18:25.756Z,16.55
2023-10-20T04:20:58.763Z,15.10
2023-10-20T04:23:25.783Z,13.75
2023-10-20T04:25:58.348Z,13.73
2023-10-20T04:28:41.869Z,16.10
2023-10-20T04:31:27.126Z,18.77
2023-10-20T04:34:12.086Z,17.30
2023-10-20T04:36:56.950Z,16.33
2023-10-20T04:39:41.954Z,18.80
2023-10-20T04:42:20.792Z,16.80
2023-10-20T04:44:50.092Z,19.70
2023-10-20T04:47:26.259Z,21.15
2023-10-20T04:50:02.891Z,20.27
2023-10-20T04:52:48.353Z,21.35
2023-10-20T04:55:30.077Z,20.42
2023-10-20T04:58:08.783Z,23.30
2023-10-20T05:00:38.580Z,25.27
2023-10-20T05:03:05.327Z,24.00
2023-10-20T05:05:50.352Z,23.75
2023-10-20T05:08:19.225Z,24.00
2023-10-20T05:10:46.416Z,22.13
2023-10-20T05:13:13.306Z,23.42
2023-10-20T05:15:40.273Z,22.23
2023-10-20T05:18:10.670Z,24.60
2023-10-20T05:20:38.431Z,20.40
2023-10-20T05:23:06.871Z,19.60
2023-10-20T05:25:34.027Z,22.20
2023-10-20T05:28:03.212Z,21.73
2023-10-20T05:30:29.892Z,22.30
2023-10-20T05:32:56.567Z,23.55
2023-10-20T05:35:23.141Z,22.55
2023-10-20T05:37:50.092Z,22.27
2023-10-20T05:40:17.120Z,23.60
2023-10-20T05:42:43.693Z,24.88
2023-10-20T05:45:10.979Z,25.40
2023-10-20T05:47:39.482Z,26.95
2023-10-20T05:50:07.412Z,24.02
2023-10-20T05:52:36.719Z,26.35
2023-10-20T05:55:04.593Z,27.02
2023-10-20T05:57:31.664Z,30.48
2023-10-20T06:00:01.117Z,23.20
2023-10-20T06:02:29.220Z,22.90
2023-10-20T06:04:56.115Z,26.88
2023-10-20T06:07:22.866Z,28.98
2023-10-20T06:09:50.803Z,23.35
2023-10-20T06:12:18.037Z,26.45
2023-10-20T06:14:44.816Z,27.45
2023-10-20T06:17:11.796Z,25.63
2023-10-20T06:19:38.441Z,26.75
2023-10-20T06:22:06.646Z,22.67
2023-10-20T06:24:34.519Z,21.30
2023-10-20T06:27:04.191Z,22.83
2023-10-20T06:29:31.335Z,23.70
2023-10-20T06:32:12.838Z,19.98
2023-10-20T06:34:42.999Z,22.00
2023-10-20T06:37:09.838Z,17.85
2023-10-20T06:39:38.688Z,17.88
2023-10-20T06:42:10.684Z,18.63
2023-10-20T06:44:37.586Z,15.73
2023-10-20T06:47:04.122Z,15.05
2023-10-20T06:49:30.835Z,15.43
2023-10-20T06:51:57.352Z,15.73
2023-10-20T06:54:23.844Z,12.80
2023-10-20T06:56:50.394Z,13.73
2023-10-20T06:59:16.999Z,14.55
2023-10-20T07:01:45.437Z,14.65
2023-10-20T07:04:12.192Z,14.65
2023-10-20T07:06:39.029Z,15.98
2023-10-20T07:09:23.653Z,15.93
2023-10-20T07:11:50.937Z,15.50
2023-10-20T07:14:17.516Z,18.75
2023-10-20T07:16:44.177Z,17.42
2023-10-20T07:19:11.780Z,16.85
2023-10-20T07:21:38.630Z,15.25
2023-10-20T07:24:05.472Z,13.88
2023-10-20T07:26:32.263Z,18.85
2023-10-20T07:28:58.840Z,16.05
2023-10-20T07:31:27.611Z,19.63
2023-10-20T07:33:54.800Z,14.82
2023-10-20T07:36:21.423Z,13.50
2023-10-20T07:38:48.159Z,17.25
2023-10-20T07:41:17.456Z,17.88
2023-10-20T07:43:44.108Z,16.98
2023-10-20T07:46:18.125Z,17.88
2023-10-20T07:48:44.858Z,16.17
2023-10-20T07:51:12.660Z,17.48
2023-10-20T07:53:39.462Z,16.88
2023-10-20T07:56:09.139Z,17.08
2023-10-20T07:58:35.723Z,15.32
2023-10-20T08:01:02.406Z,15.98
2023-10-20T08:03:29.381Z,14.30
2023-10-20T08:05:56.886Z,17.13
2023-10-20T08:08:23.988Z,11.88
2023-10-20T08:10:51.018Z,14.95
2023-10-20T08:13:19.445Z,13.13
2023-10-20T08:15:46.238Z,14.93
2023-10-20T08:18:13.659Z,17.33
2023-10-20T08:20:40.799Z,31.35
2023-10-20T08:23:07.360Z,24.60
2023-10-20T08:25:38.129Z,24.52
2023-10-20T08:28:05.947Z,26.48
2023-10-20T08:30:32.566Z,24.52
2023-10-20T08:33:00.550Z,27.13
2023-10-20T08:35:27.447Z,22.63
2023-10-20T08:37:54.083Z,14.65
2023-10-20T08:43:03.738Z,13.32
2023-10-20T08:45:33.860Z,11.20
2023-10-20T08:48:03.143Z,14.82
2023-10-20T08:50:32.971Z,15.57
2023-10-20T08:53:02.421Z,13.15
2023-10-20T08:55:28.968Z,12.45
2023-10-20T08:57:55.650Z,10.43
2023-10-20T09:00:22.254Z,16.25
2023-10-20T09:02:49.617Z,18.15
2023-10-20T09:05:23.388Z,18.35
2023-10-20T09:07:57.301Z,16.38
2023-10-20T09:10:24.476Z,17.33
2023-10-20T09:12:51.371Z,19.02
2023-10-20T09:15:18.236Z,21.90
2023-10-20T09:17:46.106Z,27.98
2023-10-20T09:20:13.390Z,26.42
2023-10-20T09:22:40.057Z,30.02
2023-10-20T09:25:13.090Z,28.65
2023-10-20T09:27:39.712Z,27.75
2023-10-20T09:30:12.270Z,25.73
2023-10-20T09:32:39.833Z,26.15
2023-10-20T09:35:07.276Z,24.45
2023-10-20T09:37:37.338Z,21.48
2023-10-20T09:40:13.842Z,27.15
2023-10-20T09:43:07.874Z,23.25
2023-10-20T09:45:44.916Z,13.48
2023-10-20T09:48:19.941Z,19.52
2023-10-20T09:50:52.037Z,16.52
2023-10-20T09:53:19.444Z,17.15
2023-10-20T09:55:48.637Z,8.95
2023-10-20T09:58:25.880Z,7.93
2023-10-20T10:00:52.661Z,7.07
2023-10-20T10:03:29.781Z,6.88
2023-10-20T10:05:57.067Z,3.08
2023-10-20T10:08:26.051Z,3.88
2023-10-20T10:10:52.659Z,2.58
2023-10-20T10:13:33.003Z,3.22
2023-10-20T10:16:11.645Z,2.20
2023-10-20T10:18:46.285Z,1.42
2023-10-20T10:21:28.252Z,0.82
2023-10-20T10:24:14.745Z,1.95
2023-10-20T10:26:53.097Z,7.00
2023-10-20T10:29:54.953Z,80.70
2023-10-20T10:32:23.632Z,2.40
2023-10-20T10:34:55.696Z,1.25
2023-10-20T10:37:38.735Z,2.97
2023-10-20T10:40:15.407Z,1.35
2023-10-20T10:42:43.878Z,1.77
2023-10-20T10:45:22.095Z,0.55
2023-10-20T10:47:49.938Z,1.20
2023-10-20T10:50:18.240Z,4.13
2023-10-20T10:52:44.916Z,1.58
2023-10-20T10:55:11.468Z,9.93
2023-10-20T10:57:39.681Z,6.78
2023-10-20T11:00:10.466Z,5.80
2023-10-20T11:02:37.222Z,2.35
2023-10-20T11:05:05.006Z,1.15
2023-10-20T11:07:32.236Z,0.90
2023-10-20T11:09:58.759Z,1.48
2023-10-20T11:12:25.500Z,3.00
2023-10-20T11:14:57.394Z,0.95
2023-10-20T11:17:25.713Z,1.95
2023-10-20T11:19:52.415Z,1.80
2023-10-20T11:22:18.980Z,2.38
2023-10-20T11:24:53.616Z,2.50
2023-10-20T11:27:20.404Z,0.65
2023-10-20T11:29:58.554Z,0.90
2023-10-20T11:32:28.859Z,1.25
2023-10-20T11:34:55.550Z,1.02
2023-10-20T11:37:22.117Z,2.83
2023-10-20T11:39:48.762Z,1.00
2023-10-20T11:42:15.526Z,1.08
2023-10-20T11:44:42.174Z,1.17
2023-10-20T11:47:08.853Z,2.28
2023-10-20T11:49:35.350Z,1.55
2023-10-20T11:52:03.732Z,4.68
2023-10-20T11:54:30.357Z,3.60
2023-10-20T11:56:56.918Z,5.30
2023-10-20T11:59:23.496Z,4.53
2023-10-20T12:01:50.244Z,1.40
2023-10-20T12:04:17.462Z,0.43
2023-10-20T12:06:45.217Z,1.45
2023-10-20T12:09:17.872Z,3.17
2023-10-20T12:11:46.576Z,0.52
2023-10-20T12:14:15.254Z,2.45
2023-10-20T12:16:43.081Z,0.40
2023-10-20T12:19:09.778Z,0.38
2023-10-20T12:21:36.443Z,0.68
2023-10-20T12:24:03.255Z,0.45
2023-10-20T12:26:29.843Z,0.68
2023-10-20T12:28:58.129Z,1.23
2023-10-20T12:31:27.393Z,1.38
2023-10-20T12:33:54.190Z,0.55
2023-10-20T12:36:22.367Z,0.10
2023-10-20T12:38:49.262Z,1.38
2023-10-20T12:41:16.082Z,0.50
2023-10-20T12:43:43.284Z,0.98
2023-10-20T12:46:13.442Z,0.30
2023-10-20T12:48:41.324Z,0.98
2023-10-20T12:51:12.070Z,0.35
2023-10-20T12:53:38.913Z,0.32
2023-10-20T12:56:06.623Z,0.40
2023-10-20T12:58:34.096Z,1.98
2023-10-20T13:01:01.032Z,1.65
2023-10-20T13:03:28.042Z,0.70
2023-10-20T13:05:55.716Z,3.13
2023-10-20T13:08:23.431Z,4.97
2023-10-20T13:10:50.068Z,0.50
2023-10-20T13:13:18.046Z,0.75
2023-10-20T13:15:45.502Z,0.20
2023-10-20T13:18:13.743Z,0.22
2023-10-20T13:20:41.700Z,0.70
2023-10-20T13:23:08.319Z,2.85
2023-10-20T13:25:35.280Z,3.10
2023-10-20T13:28:01.941Z,2.60
2023-10-20T13:30:28.542Z,1.42
2023-10-20T13:32:55.119Z,1.65
2023-10-20T13:35:23.114Z,0.77
2023-10-20T13:37:50.856Z,0.85
2023-10-20T13:40:17.488Z,0.95
2023-10-20T13:42:45.377Z,1.30
2023-10-20T13:45:13.687Z,3.63
2023-10-20T13:47:40.585Z,3.22
2023-10-20T13:50:10.397Z,5.53
2023-10-20T13:52:39.632Z,1.52
2023-10-20T13:55:20.839Z,3.40
2023-10-20T13:57:48.780Z,4.43
2023-10-20T14:00:18.264Z,4.03
2023-10-20T14:02:45.021Z,4.43
2023-10-20T14:05:13.618Z,3.95
2023-10-20T14:07:40.117Z,5.40
2023-10-20T14:10:07.392Z,4.68
2023-10-20T14:12:33.910Z,5.68
2023-10-20T14:15:00.835Z,4.32
2023-10-20T14:17:27.511Z,2.22
2023-10-20T14:19:54.732Z,3.13
2023-10-20T14:22:21.286Z,2.78
2023-10-20T14:24:47.901Z,4.35
2023-10-20T14:27:14.366Z,5.88
2023-10-20T14:29:41.639Z,3.28
2023-10-20T14:32:08.477Z,5.10
2023-10-20T14:34:36.321Z,3.75
2023-10-20T14:37:04.508Z,4.00
2023-10-20T14:39:31.132Z,3.42
2023-10-20T14:41:57.644Z,5.43
2023-10-20T14:44:24.219Z,9.55
2023-10-20T14:46:50.742Z,4.25
2023-10-20T14:49:17.237Z,3.47
2023-10-20T14:51:43.793Z,4.53
2023-10-20T14:54:14.872Z,5.40
2023-10-20T14:56:41.653Z,4.68
2023-10-20T14:59:08.365Z,5.20
2023-10-20T15:01:35.106Z,3.00
2023-10-20T15:04:14.019Z,5.15
2023-10-20T15:06:48.323Z,5.47
2023-10-20T15:09:15.359Z,7.78
2023-10-20T15:11:41.918Z,4.78
2023-10-20T15:14:09.367Z,4.72
2023-10-20T15:16:36.015Z,2.65
2023-10-20T15:19:02.538Z,5.25
2023-10-20T15:21:29.566Z,6.57
2023-10-20T15:23:56.235Z,6.75
2023-10-20T15:26:23.080Z,4.55
2023-10-20T15:28:49.657Z,5.63
2023-10-20T15:31:16.206Z,3.92
2023-10-20T15:33:43.138Z,4.40
2023-10-20T15:36:10.923Z,6.47
2023-10-20T15:38:38.703Z,4.53
2023-10-20T15:41:05.528Z,3.67
2023-10-20T15:43:32.854Z,3.50
2023-10-20T15:46:00.515Z,3.88
2023-10-20T15:48:27.242Z,5.22
2023-10-20T15:50:53.974Z,3.38
2023-10-20T15:53:20.565Z,3.30
2023-10-20T15:55:47.506Z,2.45
2023-10-20T15:58:16.451Z,3.03
2023-10-20T16:00:47.777Z,6.05
2023-10-20T16:03:18.872Z,4.78
2023-10-20T16:05:46.921Z,3.65
2023-10-20T16:08:13.483Z,4.15
2023-10-20T16:10:39.956Z,4.15
2023-10-20T16:13:06.404Z,4.28
2023-10-20T16:15:33.626Z,2.25
2023-10-20T16:18:00.266Z,3.67
2023-10-20T16:20:27.315Z,4.05
2023-10-20T16:22:53.873Z,3.20
2023-10-20T16:25:20.415Z,2.78
2023-10-20T16:27:46.940Z,3.38
2023-10-20T16:30:13.565Z,4.15
2023-10-20T16:32:41.885Z,2.88
2023-10-20T16:35:09.363Z,4.85
2023-10-20T16:37:36.213Z,3.33
2023-10-20T16:40:03.063Z,3.20
2023-10-20T16:42:29.601Z,4.20
2023-10-20T16:44:56.634Z,3.85
2023-10-20T16:47:23.211Z,2.53
2023-10-20T16:49:52.128Z,7.47
2023-10-20T16:52:18.840Z,4.75
2023-10-20T16:54:52.042Z,3.20
2023-10-20T16:59:45.973Z,5.05
2023-10-20T17:02:12.591Z,3.83
2023-10-20T17:04:39.116Z,3.85
2023-10-20T17:07:06.001Z,3.45
2023-10-20T17:09:34.419Z,6.47
2023-10-20T17:12:01.346Z,4.35
2023-10-20T17:14:28.829Z,4.93
2023-10-20T17:16:55.996Z,5.03
2023-10-20T17:19:22.678Z,5.07
2023-10-20T17:21:49.191Z,4.72
2023-10-20T17:24:15.864Z,6.55
2023-10-20T17:26:42.400Z,4.88
2023-10-20T17:29:08.952Z,7.82
2023-10-20T17:31:35.681Z,5.88
2023-10-20T17:34:02.538Z,6.35
2023-10-20T17:36:29.113Z,6.10
2023-10-20T17:38:56.014Z,9.40
2023-10-20T17:41:22.615Z,8.85
2023-10-20T17:43:49.127Z,11.40
2023-10-20T17:46:18.126Z,8.60
2023-10-20T17:48:45.229Z,7.95
2023-10-20T17:51:12.088Z,6.47
2023-10-20T17:53:38.709Z,5.35
2023-10-20T17:56:06.148Z,4.20
2023-10-20T17:58:33.275Z,2.45
2023-10-20T18:01:10.800Z,3.95
2023-10-20T18:03:43.628Z,2.60
2023-10-20T18:06:15.847Z,2.90
2023-10-20T18:08:47.385Z,3.50
2023-10-20T18:11:18.081Z,2.92
2023-10-20T18:13:46.199Z,4.65
2023-10-20T18:16:18.108Z,2.10
2023-10-20T18:18:49.454Z,2.00
2023-10-20T18:21:19.288Z,3.92
2023-10-20T18:23:48.026Z,3.45
2023-10-20T18:26:15.104Z,2.47
2023-10-20T18:28:42.178Z,2.03
2023-10-20T18:31:14.977Z,3.42
2023-10-20T18:33:42.236Z,2.90
2023-10-20T18:36:09.428Z,2.25
2023-10-20T18:38:36.027Z,3.92
2023-10-20T18:41:04.167Z,3.95
2023-10-20T18:43:30.935Z,2.03
2023-10-20T18:46:00.951Z,3.35
2023-10-20T18:48:28.176Z,2.05
2023-10-20T18:51:07.584Z,1.75
2023-10-20T18:53:35.924Z,2.10
2023-10-20T18:56:03.024Z,2.72
2023-10-20T18:58:30.246Z,1.25
2023-10-20T19:00:57.977Z,2.22
2023-10-20T19:03:24.857Z,1.65
2023-10-20T19:05:51.913Z,1.95
2023-10-20T19:08:19.302Z,3.67
2023-10-20T19:10:46.294Z,3.90
2023-10-20T19:13:13.170Z,2.45
2023-10-20T19:15:39.789Z,2.90
2023-10-20T19:18:06.511Z,3.65
2023-10-20T19:20:33.066Z,1.52
2023-10-20T19:23:01.037Z,1.30
2023-10-20T19:25:27.680Z,0.93
2023-10-20T19:27:59.494Z,2.83
2023-10-20T19:30:25.988Z,1.17
2023-10-20T19:32:52.699Z,3.28
2023-10-20T19:35:19.305Z,7.13
2023-10-20T19:37:45.783Z,4.22
2023-10-20T19:40:15.085Z,0.93
2023-10-20T19:42:44.038Z,2.38
2023-10-20T19:45:11.651Z,0.80
2023-10-20T19:47:38.542Z,0.90
2023-10-20T19:50:05.808Z,1.65
2023-10-20T19:52:32.379Z,1.10
2023-10-20T19:55:01.855Z,0.90
2023-10-20T19:57:28.421Z,1.35
2023-10-20T19:59:55.095Z,1.65
2023-10-20T20:02:21.676Z,3.55
2023-10-20T20:04:48.361Z,1.38
2023-10-20T20:07:14.874Z,0.40
2023-10-20T20:09:41.430Z,1.80
2023-10-20T20:12:08.070Z,0.30
2023-10-20T20:14:34.692Z,0.30
2023-10-20T20:17:03.045Z,0.82
2023-10-20T20:19:29.787Z,0.15
2023-10-20T20:21:56.280Z,0.17
2023-10-20T20:24:22.790Z,0.85
2023-10-20T20:26:49.390Z,1.98
2023-10-20T20:29:15.957Z,4.85
2023-10-20T20:31:42.563Z,0.30
2023-10-20T20:34:10.617Z,0.22
2023-10-20T20:36:37.291Z,0.25
2023-10-20T20:39:05.731Z,1.35
2023-10-20T20:41:34.680Z,0.43
2023-10-20T20:44:01.174Z,0.30
2023-10-20T20:46:27.850Z,0.88
2023-10-20T20:48:54.551Z,2.50
2023-10-20T20:51:21.159Z,1.05
2023-10-20T20:53:47.986Z,0.80
2023-10-20T20:56:17.027Z,0.20
2023-10-20T20:58:43.516Z,1.20
2023-10-20T21:01:11.396Z,0.32
2023-10-20T21:03:44.142Z,0.10
2023-10-20T21:06:11.403Z,1.25
2023-10-20T21:08:38.036Z,0.52
2023-10-20T21:11:14.233Z,0.10
2023-10-20T21:13:43.137Z,1.15
2023-10-20T21:16:11.234Z,0.17
2023-10-20T21:18:38.714Z,0.60
2023-10-20T21:21:11.794Z,0.20
2023-10-20T21:23:38.472Z,0.73
2023-10-20T21:26:05.074Z,1.02
2023-10-20T21:28:31.644Z,0.85
2023-10-20T21:31:06.278Z,4.72
2023-10-20T21:33:33.899Z,0.60
2023-10-20T21:36:01.227Z,0.50
2023-10-20T21:38:27.752Z,2.78
2023-10-20T21:41:01.595Z,1.80
2023-10-20T21:43:28.661Z,2.75
2023-10-20T21:45:59.537Z,1.85
2023-10-20T21:48:26.880Z,0.82
2023-10-20T21:51:01.431Z,1.70
2023-10-20T21:53:30.169Z,0.25
2023-10-20T21:56:06.006Z,0.30
2023-10-20T21:58:38.141Z,0.57
2023-10-20T22:01:10.143Z,0.93
2023-10-20T22:03:39.197Z,1.67
2023-10-20T22:06:09.525Z,0.10
2023-10-20T22:08:36.331Z,0.55
2023-10-20T22:11:02.873Z,0.20
2023-10-20T22:13:29.441Z,1.42
2023-10-20T22:15:56.826Z,0.40
2023-10-20T22:18:23.587Z,1.65
2023-10-20T22:20:50.266Z,0.65
2023-10-20T22:23:19.275Z,0.70
2023-10-20T22:25:45.898Z,1.45
2023-10-20T22:28:12.392Z,1.90
2023-10-20T22:30:38.923Z,0.82
2023-10-20T22:33:05.623Z,0.63
2023-10-20T22:35:36.535Z,2.08
2023-10-20T22:38:03.233Z,0.40
2023-10-20T22:40:29.817Z,1.35
2023-10-20T22:42:56.805Z,1.42
2023-10-20T22:45:23.294Z,2.47
2023-10-20T22:47:52.991Z,0.20
2023-10-20T22:50:20.405Z,0.55
2023-10-20T22:52:50.177Z,0.25
2023-10-20T22:55:16.736Z,2.83
2023-10-20T22:57:43.431Z,3.50
2023-10-20T23:00:12.811Z,0.10
2023-10-20T23:02:41.209Z,0.28
2023-10-20T23:05:08.990Z,0.20
2023-10-20T23:07:35.882Z,0.73
2023-10-20T23:10:04.553Z,0.15
2023-10-20T23:12:34.674Z,1.35
2023-10-20T23:15:01.867Z,1.50
2023-10-20T23:17:28.631Z,1.30
2023-10-20T23:19:55.806Z,1.05
2023-10-20T23:22:22.393Z,2.05
2023-10-20T23:24:48.948Z,0.43
2023-10-20T23:27:15.701Z,1.13
2023-10-20T23:29:43.157Z,0.75
2023-10-20T23:32:09.953Z,0.77
2023-10-20T23:34:36.736Z,0.43
2023-10-20T23:37:06.223Z,1.35
2023-10-20T23:39:34.416Z,0.88
2023-10-20T23:42:05.265Z,2.83
2023-10-20T23:44:32.381Z,0.57
2023-10-20T23:46:58.893Z,0.68
2023-10-20T23:49:25.597Z,0.65
2023-10-20T23:51:52.912Z,0.60
2023-10-20T23:54:19.620Z,1.30
2023-10-20T23:56:46.259Z,2.35
2023-10-20T23:59:12.772Z,0.45
